Time;durP1;ratioP1;P1;durP2;ratioP2;P2;SDS_P1;SDS_P2;PMS_P1;PMS_P2;Temp;Humidity;BMP_temperature;BMP_pressure;BME280_temperature;BME280_humidity;BME280_pressure;Samples;Min_cycle;Max_cycle;Signal;HPM_P1;HPM_P2
2022/01/21 04:00:46;;;;;;;19.92;1.95;;;1.80;99.90;;;;;;5852377;23;20657;-81
2022/01/21 04:03:12;;;;;;;16.90;2.30;;;1.80;99.90;;;;;;4992731;28;20046;-83
2022/01/21 04:05:38;;;;;;;15.18;2.47;;;1.80;99.90;;;;;;4992742;28;20046;-83
2022/01/21 04:08:05;;;;;;;17.92;1.90;;;1.80;99.90;;;;;;4992763;28;20173;-84
2022/01/21 04:10:31;;;;;;;8.95;1.73;;;1.70;99.90;;;;;;4995453;28;20061;-81
2022/01/21 04:12:56;;;;;;;18.70;2.50;;;1.70;99.90;;;;;;5012327;28;20090;-83
2022/01/21 04:15:23;;;;;;;16.13;2.47;;;1.70;99.90;;;;;;5012222;28;20497;-84
2022/01/21 04:17:49;;;;;;;15.07;2.22;;;1.70;99.90;;;;;;5012476;28;20038;-85
2022/01/21 04:20:16;;;;;;;16.33;1.60;;;1.70;99.90;;;;;;5012495;28;20056;-84
2022/01/21 04:22:43;;;;;;;11.40;2.00;;;1.60;99.90;;;;;;5012119;28;20111;-83
2022/01/21 04:25:09;;;;;;;16.65;2.03;;;1.60;99.90;;;;;;5012045;28;20046;-85
2022/01/21 04:27:36;;;;;;;16.55;1.92;;;1.60;99.90;;;;;;5012108;28;20042;-81
2022/01/21 04:30:05;;;;;;;22.45;4.55;;;1.60;99.90;;;;;;5012194;28;20391;-82
2022/01/21 04:32:31;;;;;;;10.68;1.90;;;1.60;99.90;;;;;;5013544;28;20045;-82
2022/01/21 04:34:57;;;;;;;20.48;2.38;;;1.70;99.90;;;;;;5013727;28;20041;-82
2022/01/21 04:37:22;;;;;;;10.77;2.65;;;1.60;99.90;;;;;;5012264;28;20064;-82
2022/01/21 04:40:01;;;;;;;13.75;2.00;;;1.70;99.90;;;;;;4995893;28;20107;-82
2022/01/21 04:48:06;;;;;;;12.45;1.65;;;1.70;99.90;;;;;;5015882;28;20049;-84
2022/01/21 04:50:39;;;;;;;12.68;2.10;;;1.80;99.90;;;;;;5017315;28;20041;-83
2022/01/21 04:53:06;;;;;;;11.07;1.67;;;1.80;99.90;;;;;;5015924;28;20081;-84
2022/01/21 04:55:36;;;;;;;12.35;1.73;;;1.90;99.90;;;;;;5015729;28;20046;-82
2022/01/21 04:58:02;;;;;;;12.60;1.80;;;1.90;99.90;;;;;;5016011;28;20046;-84
2022/01/21 05:00:28;;;;;;;11.98;2.28;;;1.90;99.90;;;;;;5015688;28;20378;-83
2022/01/21 05:02:56;;;;;;;12.60;1.60;;;1.90;99.90;;;;;;5016062;28;20038;-84
2022/01/21 05:05:22;;;;;;;17.92;2.42;;;1.90;99.90;;;;;;5016761;28;20113;-82
2022/01/21 05:07:47;;;;;;;12.15;1.95;;;1.90;99.90;;;;;;4999634;28;20496;-84
2022/01/21 05:10:13;;;;;;;11.82;2.33;;;1.80;99.90;;;;;;5015363;28;20083;-83
2022/01/21 05:12:39;;;;;;;12.23;2.13;;;1.80;99.90;;;;;;4998800;28;20042;-82
2022/01/21 05:17:44;;;;;;;13.10;2.25;;;1.80;99.90;;;;;;5015376;28;20042;-83
2022/01/21 05:20:10;;;;;;;15.50;2.10;;;1.80;99.90;;;;;;4998948;28;20042;-81
2022/01/21 05:22:36;;;;;;;16.88;2.40;;;1.80;99.90;;;;;;5015257;28;20129;-82
2022/01/21 05:25:02;;;;;;;8.48;2.00;;;1.80;99.90;;;;;;4999170;28;20486;-85
2022/01/21 05:27:27;;;;;;;15.88;2.55;;;1.80;99.90;;;;;;5015069;28;20049;-84
2022/01/21 05:29:53;;;;;;;16.13;2.67;;;1.80;99.90;;;;;;5014947;28;20501;-82
2022/01/21 05:32:20;;;;;;;13.38;1.90;;;1.80;99.90;;;;;;5014960;28;20149;-81
2022/01/21 05:34:45;;;;;;;14.38;2.83;;;1.80;99.90;;;;;;5015157;28;20053;-82
2022/01/21 05:37:11;;;;;;;18.23;2.45;;;1.90;99.90;;;;;;4998963;28;20074;-83
2022/01/21 05:39:37;;;;;;;16.48;2.17;;;1.90;99.90;;;;;;5014775;28;20085;-83
2022/01/21 05:42:04;;;;;;;16.77;2.13;;;1.90;99.90;;;;;;5014977;28;20460;-83
2022/01/21 05:46:57;;;;;;;14.77;1.83;;;1.90;99.90;;;;;;5014922;28;20046;-80
2022/01/21 05:49:24;;;;;;;15.57;2.03;;;1.90;99.90;;;;;;4998220;28;20034;-81
2022/01/21 05:51:53;;;;;;;13.52;2.10;;;1.90;99.90;;;;;;5014742;28;20046;-84
2022/01/21 05:54:25;;;;;;;14.73;2.85;;;1.90;99.90;;;;;;5014659;28;20477;-84
2022/01/21 05:56:52;;;;;;;13.30;1.90;;;1.90;99.90;;;;;;5014229;28;20049;-80
2022/01/21 05:59:17;;;;;;;29.27;3.47;;;1.90;99.90;;;;;;5014542;28;20045;-82
2022/01/21 06:01:43;;;;;;;18.73;2.20;;;2.00;99.90;;;;;;5014319;28;20064;-81
2022/01/21 06:04:09;;;;;;;13.90;2.30;;;2.00;99.90;;;;;;5014787;28;20482;-83
2022/01/21 06:06:35;;;;;;;16.70;2.67;;;2.00;99.90;;;;;;5014523;28;20088;-84
2022/01/21 06:09:03;;;;;;;18.92;2.88;;;2.00;99.90;;;;;;5014154;28;20129;-83
2022/01/21 06:11:29;;;;;;;14.50;2.47;;;2.00;99.90;;;;;;5016269;28;20390;-82
2022/01/21 06:13:54;;;;;;;10.10;2.08;;;2.00;99.90;;;;;;5014016;28;20042;-80
2022/01/21 06:16:20;;;;;;;12.70;1.92;;;1.90;99.90;;;;;;5014096;28;20065;-83
2022/01/21 06:18:46;;;;;;;11.65;1.70;;;1.90;99.90;;;;;;5014130;28;20054;-82
2022/01/21 06:21:12;;;;;;;14.02;1.80;;;1.90;99.90;;;;;;5013956;28;20034;-81
2022/01/21 06:23:38;;;;;;;9.82;2.03;;;1.90;99.90;;;;;;5014296;28;20441;-82
2022/01/21 06:26:04;;;;;;;12.32;1.60;;;2.00;99.90;;;;;;5014208;28;20046;-80
2022/01/21 06:28:30;;;;;;;9.05;1.65;;;2.00;99.90;;;;;;5013975;28;20108;-80
2022/01/21 06:30:56;;;;;;;15.57;1.92;;;2.00;99.90;;;;;;5013717;28;20045;-83
2022/01/21 06:33:22;;;;;;;9.75;1.60;;;2.10;99.90;;;;;;5013542;28;20072;-81
2022/01/21 06:35:51;;;;;;;11.70;1.88;;;2.10;99.90;;;;;;5014845;28;20037;-81
2022/01/21 06:38:18;;;;;;;8.93;1.48;;;2.10;99.90;;;;;;5013578;28;20049;-81
2022/01/21 06:40:44;;;;;;;12.88;2.15;;;2.10;99.90;;;;;;5013636;28;20044;-84
2022/01/21 06:43:11;;;;;;;14.73;1.92;;;2.10;99.90;;;;;;5013593;28;20057;-80
2022/01/21 06:45:36;;;;;;;18.40;2.03;;;2.20;99.90;;;;;;5014946;28;20072;-83
2022/01/21 06:48:03;;;;;;;10.77;1.95;;;2.20;99.90;;;;;;5015069;28;20119;-80
2022/01/21 06:50:33;;;;;;;17.95;2.45;;;2.20;99.90;;;;;;5013439;28;20038;-81
2022/01/21 06:52:59;;;;;;;20.08;5.88;;;2.20;99.90;;;;;;5013909;28;20136;-85
2022/01/21 06:55:25;;;;;;;17.40;5.47;;;2.30;99.90;;;;;;4997334;28;20125;-81
2022/01/21 06:57:51;;;;;;;11.60;4.15;;;2.30;99.90;;;;;;5013394;28;20121;-84
2022/01/21 07:00:19;;;;;;;13.60;2.95;;;2.30;99.90;;;;;;5014808;28;20040;-83
2022/01/21 07:02:50;;;;;;;10.93;2.20;;;2.40;99.90;;;;;;5014503;28;20042;-81
2022/01/21 07:05:17;;;;;;;17.02;1.92;;;2.30;99.90;;;;;;5013567;28;20055;-80
2022/01/21 07:07:43;;;;;;;12.52;2.92;;;2.30;99.90;;;;;;5014515;28;20501;-83
2022/01/21 07:10:11;;;;;;;15.90;2.25;;;2.20;99.90;;;;;;5013274;28;20042;-80
2022/01/21 07:12:38;;;;;;;13.63;2.38;;;2.20;99.90;;;;;;5012923;28;20046;-83
2022/01/21 07:15:05;;;;;;;14.85;2.50;;;2.10;99.90;;;;;;5013079;28;20048;-83
2022/01/21 07:17:31;;;;;;;16.48;3.13;;;2.10;99.90;;;;;;5013089;28;20487;-82
2022/01/21 07:19:57;;;;;;;20.08;2.78;;;2.00;99.90;;;;;;5014702;28;20038;-83
2022/01/21 07:22:22;;;;;;;23.33;4.10;;;2.00;99.90;;;;;;5013317;28;20048;-81
2022/01/21 07:24:48;;;;;;;14.82;3.95;;;2.00;99.90;;;;;;5014445;28;20046;-80
2022/01/21 07:27:14;;;;;;;16.83;2.70;;;2.00;99.90;;;;;;5014120;28;20037;-83
2022/01/21 07:29:40;;;;;;;20.58;3.35;;;2.00;99.90;;;;;;5013923;28;20112;-82
2022/01/21 07:32:06;;;;;;;13.38;2.25;;;2.10;99.90;;;;;;5013215;28;20536;-82
2022/01/21 07:34:31;;;;;;;20.77;3.10;;;2.10;99.90;;;;;;4995552;28;20111;-81
2022/01/21 07:36:57;;;;;;;14.00;3.03;;;2.00;99.90;;;;;;5012961;28;20116;-84
2022/01/21 07:39:23;;;;;;;19.33;2.20;;;2.00;99.90;;;;;;5011787;28;20121;-81
2022/01/21 07:41:49;;;;;;;20.90;3.47;;;2.00;99.90;;;;;;5011923;28;20184;-83
2022/01/21 07:44:15;;;;;;;16.02;2.15;;;2.00;99.90;;;;;;5013046;28;20120;-82
2022/01/21 07:46:43;;;;;;;15.23;2.90;;;2.00;99.90;;;;;;5011621;28;20544;-84
2022/01/21 07:49:10;;;;;;;20.30;3.47;;;2.00;99.90;;;;;;5011606;28;20045;-84
2022/01/21 07:51:36;;;;;;;19.98;2.75;;;2.00;99.90;;;;;;5011565;28;20145;-85
2022/01/21 07:54:03;;;;;;;15.57;2.60;;;2.00;99.90;;;;;;5011272;28;20038;-81
2022/01/21 07:56:32;;;;;;;11.20;1.83;;;2.00;99.90;;;;;;5011767;28;20038;-81
2022/01/21 07:58:58;;;;;;;14.07;2.40;;;2.00;99.90;;;;;;5011502;28;20084;-83
2022/01/21 08:01:26;;;;;;;18.00;2.70;;;1.90;99.90;;;;;;5012605;28;20065;-83
2022/01/21 08:03:52;;;;;;;19.98;2.50;;;1.90;99.90;;;;;;5011587;28;20441;-83
2022/01/21 08:06:17;;;;;;;13.80;2.97;;;1.90;99.90;;;;;;5011054;28;20049;-82
2022/01/21 08:08:43;;;;;;;19.50;3.35;;;1.90;99.90;;;;;;5011315;28;20084;-81
2022/01/21 08:11:08;;;;;;;17.13;2.60;;;1.80;99.90;;;;;;5011728;28;20342;-83
2022/01/21 08:13:34;;;;;;;15.27;2.85;;;1.80;99.90;;;;;;5013381;28;20038;-84
2022/01/21 08:16:00;;;;;;;20.48;3.13;;;1.80;99.90;;;;;;5011953;28;20076;-84
2022/01/21 08:18:25;;;;;;;16.52;2.85;;;1.80;99.90;;;;;;5013585;28;20067;-82
2022/01/21 08:20:51;;;;;;;11.25;2.75;;;1.80;99.90;;;;;;5020245;28;20033;-83
2022/01/21 08:23:18;;;;;;;16.58;2.70;;;1.80;99.90;;;;;;5020153;28;20044;-84
2022/01/21 08:25:46;;;;;;;19.13;3.67;;;1.80;99.90;;;;;;5020003;28;20045;-83
2022/01/21 08:28:13;;;;;;;18.13;3.55;;;1.80;99.90;;;;;;5018934;28;20046;-80
2022/01/21 08:30:39;;;;;;;16.30;3.30;;;1.90;99.90;;;;;;5019936;28;20141;-85
2022/01/21 08:33:07;;;;;;;18.00;3.67;;;1.90;99.90;;;;;;5018490;28;20046;-83
2022/01/21 08:35:35;;;;;;;27.48;3.90;;;2.00;99.90;;;;;;5019416;28;20176;-81
2022/01/21 08:38:01;;;;;;;18.95;3.80;;;2.00;99.90;;;;;;5018461;28;20069;-84
2022/01/21 08:40:27;;;;;;;15.95;3.97;;;2.10;99.90;;;;;;5018291;28;20049;-81
2022/01/21 08:42:53;;;;;;;23.00;3.00;;;2.20;99.90;;;;;;5018656;28;20145;-83
2022/01/21 08:45:20;;;;;;;22.23;3.58;;;2.30;99.90;;;;;;5018440;28;20074;-83
2022/01/21 08:47:47;;;;;;;23.60;4.07;;;2.50;99.90;;;;;;5018316;28;20058;-84
2022/01/21 08:50:17;;;;;;;14.52;2.95;;;2.70;99.90;;;;;;5018613;28;20081;-84
2022/01/21 08:52:43;;;;;;;18.73;3.40;;;2.90;99.90;;;;;;5019874;28;20046;-83
2022/01/21 08:55:11;;;;;;;22.35;4.95;;;3.00;99.90;;;;;;5019701;28;20092;-82
2022/01/21 08:57:40;;;;;;;19.60;3.92;;;3.00;99.90;;;;;;5018349;28;20038;-82
2022/01/21 09:00:13;;;;;;;20.25;3.60;;;3.00;99.90;;;;;;5019450;28;20049;-83
2022/01/21 09:02:39;;;;;;;27.30;4.32;;;3.00;99.90;;;;;;5020003;28;20084;-81
2022/01/21 09:05:08;;;;;;;21.88;4.22;;;2.90;99.90;;;;;;5018156;28;20442;-81
2022/01/21 09:07:34;;;;;;;24.58;4.53;;;2.90;99.90;;;;;;5001790;28;20034;-80
2022/01/21 09:10:00;;;;;;;21.20;4.53;;;3.00;99.90;;;;;;5018069;28;20117;-81
2022/01/21 09:12:26;;;;;;;25.98;4.40;;;3.00;99.90;;;;;;5017897;28;20173;-81
2022/01/21 09:14:53;;;;;;;27.52;5.03;;;3.00;99.90;;;;;;5019493;28;20034;-78
2022/01/21 09:17:20;;;;;;;28.70;4.35;;;3.00;99.90;;;;;;5019214;28;20508;-81
2022/01/21 09:19:46;;;;;;;21.20;3.55;;;3.00;99.90;;;;;;5019715;28;20172;-79
2022/01/21 09:22:12;;;;;;;20.88;3.08;;;3.00;99.90;;;;;;5018086;28;20062;-83
2022/01/21 09:24:37;;;;;;;26.20;4.50;;;3.10;99.90;;;;;;5017717;28;20049;-81
2022/01/21 09:27:04;;;;;;;23.17;5.05;;;3.10;99.90;;;;;;5018045;28;20041;-82
2022/01/21 09:29:31;;;;;;;28.35;4.38;;;3.20;99.90;;;;;;5000924;28;20049;-82
2022/01/21 09:31:57;;;;;;;20.92;3.53;;;3.20;99.90;;;;;;5015189;28;20034;-82
2022/01/21 09:34:25;;;;;;;29.25;4.18;;;3.30;99.90;;;;;;5016775;28;20065;-83
2022/01/21 09:36:51;;;;;;;30.85;4.13;;;3.30;99.90;;;;;;5016455;28;20096;-81
2022/01/21 09:39:17;;;;;;;20.63;3.75;;;3.40;99.90;;;;;;5016407;28;20038;-82
2022/01/21 09:41:43;;;;;;;20.40;3.95;;;3.50;99.90;;;;;;5014896;28;20393;-83
2022/01/21 09:44:20;;;;;;;21.15;4.35;;;3.60;99.90;;;;;;5015139;28;20401;-82
2022/01/21 09:46:50;;;;;;;22.52;3.70;;;3.60;99.90;;;;;;5014726;28;20049;-83
2022/01/21 09:51:46;;;;;;;25.98;4.47;;;3.80;99.90;;;;;;5014347;28;20057;-83
2022/01/21 09:54:13;;;;;;;19.17;3.17;;;3.90;99.90;;;;;;5014509;28;20073;-84
2022/01/21 09:56:45;;;;;;;23.67;3.05;;;3.90;99.90;;;;;;5014382;28;20108;-79
2022/01/21 09:59:11;;;;;;;24.50;3.63;;;4.00;99.90;;;;;;5014409;28;20046;-84
2022/01/21 10:01:38;;;;;;;25.58;3.50;;;4.00;99.90;;;;;;5014087;28;20049;-80
2022/01/21 10:04:05;;;;;;;19.55;2.92;;;4.10;99.90;;;;;;5014435;28;20042;-83
2022/01/21 10:06:33;;;;;;;24.90;3.78;;;4.20;99.90;;;;;;5014279;28;20045;-82
2022/01/21 10:09:01;;;;;;;24.10;3.60;;;4.30;99.90;;;;;;5014307;28;20121;-85
2022/01/21 10:11:27;;;;;;;26.25;4.55;;;4.30;99.90;;;;;;5014109;28;20050;-83
2022/01/21 10:13:53;;;;;;;18.63;3.00;;;4.50;99.90;;;;;;4997794;28;20544;-81
2022/01/21 10:16:18;;;;;;;30.08;4.10;;;4.60;99.90;;;;;;5015415;28;20038;-84
2022/01/21 10:18:59;;;;;;;21.75;4.28;;;4.70;99.90;;;;;;5014791;28;20070;-84
2022/01/21 10:21:33;;;;;;;27.55;3.58;;;4.70;99.90;;;;;;5003355;28;20045;-77
2022/01/21 10:24:11;;;;;;;25.27;3.70;;;4.80;99.90;;;;;;5023074;28;20049;-80
2022/01/21 10:26:49;;;;;;;22.85;3.50;;;5.10;99.90;;;;;;4999326;28;20417;-85
2022/01/21 10:29:14;;;;;;;24.65;4.15;;;5.30;99.90;;;;;;5016111;28;20077;-83
2022/01/21 10:31:58;;;;;;;27.83;3.35;;;5.40;99.90;;;;;;5014065;28;20083;-77
2022/01/21 10:34:30;;;;;;;24.40;4.50;;;5.40;99.90;;;;;;5013780;28;20049;-81
2022/01/21 10:37:06;;;;;;;24.38;3.30;;;5.50;99.90;;;;;;5013822;28;20213;-82
2022/01/21 10:39:34;;;;;;;28.00;3.38;;;5.60;99.90;;;;;;5013859;28;20072;-84
2022/01/21 10:42:00;;;;;;;20.80;2.60;;;5.70;99.90;;;;;;5013509;28;20366;-82
2022/01/21 10:44:30;;;;;;;21.90;3.88;;;5.80;99.90;;;;;;5013643;28;20163;-84
2022/01/21 10:47:06;;;;;;;14.35;2.33;;;5.90;99.90;;;;;;5013979;28;20162;-82
2022/01/21 10:49:33;;;;;;;14.75;1.80;;;6.10;99.90;;;;;;5015243;28;20038;-78
2022/01/21 10:51:59;;;;;;;18.08;2.83;;;6.30;99.90;;;;;;5013842;28;20394;-82
2022/01/21 10:54:28;;;;;;;22.05;2.70;;;6.30;99.90;;;;;;5014411;28;20033;-84
2022/01/21 10:57:05;;;;;;;12.25;2.28;;;6.40;99.90;;;;;;5013689;28;20038;-83
2022/01/21 10:59:53;;;;;;;15.13;2.47;;;6.50;99.90;;;;;;5013276;28;20505;-84
2022/01/21 11:02:37;;;;;;;14.13;2.47;;;6.50;99.90;;;;;;5014466;28;20042;-85
2022/01/21 11:05:23;;;;;;;14.35;1.90;;;6.50;99.90;;;;;;5013526;28;20042;-82
2022/01/21 11:08:00;;;;;;;15.40;2.67;;;6.50;99.90;;;;;;5014500;28;20041;-84
2022/01/21 11:10:31;;;;;;;13.57;2.03;;;6.50;99.90;;;;;;5014647;28;20061;-83
2022/01/21 11:12:57;;;;;;;19.77;2.60;;;6.60;99.90;;;;;;5013411;28;20124;-83
2022/01/21 11:15:23;;;;;;;15.77;2.30;;;6.60;99.90;;;;;;5014711;28;20360;-82
2022/01/21 11:18:00;;;;;;;19.70;2.45;;;6.60;99.90;;;;;;5013110;28;20065;-85
2022/01/21 11:20:38;;;;;;;11.18;2.30;;;6.60;99.90;;;;;;5012917;28;20046;-83
2022/01/21 11:23:05;;;;;;;18.50;2.97;;;6.60;99.90;;;;;;5012911;28;20080;-84
2022/01/21 11:25:48;;;;;;;16.88;2.50;;;6.60;99.90;;;;;;5012751;28;20050;-85
2022/01/21 11:28:20;;;;;;;17.60;2.15;;;6.60;99.90;;;;;;5014361;28;20113;-82
2022/01/21 11:30:46;;;;;;;14.23;1.90;;;6.60;99.90;;;;;;5013884;28;20607;-83
2022/01/21 11:33:12;;;;;;;18.33;2.55;;;6.70;99.90;;;;;;5013811;28;20505;-81
2022/01/21 11:35:38;;;;;;;10.65;2.53;;;6.60;99.90;;;;;;5014166;28;20041;-82
2022/01/21 11:38:06;;;;;;;11.95;1.90;;;6.70;99.90;;;;;;5010881;28;20037;-84
2022/01/21 11:40:32;;;;;;;17.63;2.42;;;6.70;99.90;;;;;;5010922;28;20045;-85
2022/01/21 11:42:58;;;;;;;14.50;2.13;;;6.70;99.90;;;;;;5011895;28;20049;-86
2022/01/21 11:50:45;;;;;;;13.18;2.15;;;6.80;99.90;;;;;;5012033;28;20057;-85
2022/01/21 11:53:12;;;;;;;10.50;1.67;;;6.80;99.90;;;;;;5011267;28;20189;-84
2022/01/21 11:55:47;;;;;;;14.43;2.22;;;6.80;99.90;;;;;;5012218;28;20038;-84
2022/01/21 11:58:21;;;;;;;17.63;2.50;;;6.80;99.90;;;;;;5012653;28;20360;-84
2022/01/21 12:00:49;;;;;;;13.00;1.75;;;6.80;99.90;;;;;;5011956;28;20046;-86
2022/01/21 12:03:17;;;;;;;9.48;1.85;;;6.80;99.90;;;;;;5011994;28;20046;-84
2022/01/21 12:05:43;;;;;;;15.68;2.95;;;6.80;99.90;;;;;;5012132;28;20081;-85
2022/01/21 12:08:09;;;;;;;16.92;2.38;;;6.80;99.90;;;;;;5012048;28;20077;-85
2022/01/21 12:10:38;;;;;;;16.00;3.22;;;6.80;99.90;;;;;;5013340;28;20041;-85
2022/01/21 12:13:06;;;;;;;14.93;1.88;;;6.80;99.90;;;;;;5012504;28;20119;-84
2022/01/21 12:15:38;;;;;;;16.73;2.40;;;6.90;99.90;;;;;;5011352;28;20057;-85
2022/01/21 12:18:22;;;;;;;12.10;1.90;;;6.90;99.90;;;;;;4995207;28;20045;-85
2022/01/21 12:20:48;;;;;;;16.00;2.40;;;6.80;99.90;;;;;;5012976;28;20041;-82
2022/01/21 12:23:16;;;;;;;11.98;2.22;;;6.90;99.90;;;;;;5011529;28;20056;-83
2022/01/21 12:26:13;;;;;;;16.70;2.38;;;6.90;99.90;;;;;;5013188;28;20129;-84
2022/01/21 12:28:41;;;;;;;15.55;2.17;;;6.90;99.90;;;;;;5011713;28;20100;-81
2022/01/21 12:31:08;;;;;;;16.23;2.60;;;6.90;99.90;;;;;;5013024;28;20041;-83
2022/01/21 12:34:03;;;;;;;15.20;2.45;;;6.90;99.90;;;;;;5011343;28;20046;-84
2022/01/21 12:36:34;;;;;;;22.25;2.70;;;6.90;99.90;;;;;;4995498;28;20379;-83
2022/01/21 12:41:35;;;;;;;18.90;2.38;;;7.00;99.90;;;;;;5012183;28;20038;-87
2022/01/21 12:44:07;;;;;;;15.32;2.67;;;7.00;99.90;;;;;;5011596;28;20100;-83
2022/01/21 12:46:39;;;;;;;16.27;3.40;;;7.10;99.90;;;;;;5013017;28;20049;-86
2022/01/21 12:49:30;;;;;;;17.40;2.83;;;7.10;99.90;;;;;;5011718;28;20056;-86
2022/01/21 12:52:10;;;;;;;10.73;1.90;;;7.10;99.90;;;;;;5011836;28;20046;-83
2022/01/21 12:57:32;;;;;;;18.50;2.72;;;7.10;99.90;;;;;;5011422;28;20038;-82
2022/01/21 13:00:07;;;;;;;12.82;2.08;;;7.10;99.90;;;;;;5011625;28;20046;-85
2022/01/21 13:02:33;;;;;;;15.23;2.88;;;7.10;99.90;;;;;;5011307;28;20056;-84
2022/01/21 13:05:26;;;;;;;10.68;1.77;;;7.10;99.90;;;;;;5012950;28;20082;-86
2022/01/21 13:08:11;;;;;;;20.52;3.03;;;7.10;99.90;;;;;;5015308;28;20446;-85
2022/01/21 13:10:38;;;;;;;17.00;2.10;;;7.10;99.90;;;;;;5016357;28;20045;-83
2022/01/21 13:15:44;;;;;;;16.38;1.95;;;7.00;99.90;;;;;;5015171;28;20050;-84
2022/01/21 13:18:31;;;;;;;18.90;2.70;;;7.00;99.90;;;;;;5015165;28;20128;-86
2022/01/21 13:20:59;;;;;;;23.42;2.65;;;7.00;99.90;;;;;;5014748;28;20048;-87
2022/01/21 13:23:43;;;;;;;19.67;3.08;;;7.00;99.90;;;;;;5014661;28;20046;-83
2022/01/21 13:26:20;;;;;;;14.48;2.53;;;7.00;99.90;;;;;;5014741;28;20049;-82
2022/01/21 13:28:59;;;;;;;15.48;3.13;;;7.00;99.90;;;;;;5014962;28;20077;-84
2022/01/21 13:31:26;;;;;;;18.08;2.50;;;7.00;99.90;;;;;;4998273;28;20053;-82
2022/01/21 13:34:04;;;;;;;14.52;2.70;;;7.00;99.90;;;;;;5014674;28;20126;-82
2022/01/21 13:36:35;;;;;;;13.07;2.20;;;7.00;99.90;;;;;;5016108;28;20034;-86
2022/01/21 13:39:11;;;;;;;21.00;2.72;;;7.00;99.90;;;;;;5014973;28;20041;-84
2022/01/21 13:41:56;;;;;;;16.77;2.15;;;7.00;99.90;;;;;;4998280;28;20038;-84
2022/01/21 13:44:29;;;;;;;20.80;2.63;;;7.00;99.90;;;;;;5014425;28;20053;-83
2022/01/21 13:46:57;;;;;;;24.88;4.00;;;7.00;99.90;;;;;;5014374;28;20042;-87
2022/01/21 13:49:24;;;;;;;18.40;3.05;;;7.00;99.90;;;;;;5014572;28;20069;-84
2022/01/21 13:51:59;;;;;;;12.65;2.47;;;7.00;99.90;;;;;;5014211;28;20041;-85
2022/01/21 13:54:32;;;;;;;22.40;3.53;;;7.00;99.90;;;;;;5012297;28;20121;-82
2022/01/21 13:56:59;;;;;;;19.33;2.90;;;7.00;99.90;;;;;;5015399;28;20497;-89
2022/01/21 13:59:25;;;;;;;20.80;3.15;;;7.00;99.90;;;;;;5015276;28;20402;-81
2022/01/21 14:02:04;;;;;;;21.77;3.72;;;7.00;99.90;;;;;;5013709;28;20123;-90
2022/01/21 14:04:31;;;;;;;20.23;2.60;;;7.00;99.90;;;;;;5012373;28;20412;-85
2022/01/21 14:06:57;;;;;;;22.83;2.92;;;7.00;99.90;;;;;;5013831;28;20042;-83
2022/01/21 14:09:24;;;;;;;15.30;2.72;;;7.00;99.90;;;;;;5013921;28;20041;-87
2022/01/21 14:11:50;;;;;;;17.83;2.40;;;7.00;99.90;;;;;;5015103;28;20390;-84
2022/01/21 14:14:18;;;;;;;18.13;2.42;;;7.00;99.90;;;;;;5012585;28;20046;-90
2022/01/21 14:16:47;;;;;;;27.67;3.78;;;7.00;99.90;;;;;;5012840;28;20038;-87
2022/01/21 14:19:19;;;;;;;22.02;4.55;;;6.90;99.90;;;;;;5013502;28;20513;-83
2022/01/21 14:21:47;;;;;;;23.60;4.10;;;6.90;99.90;;;;;;5014129;28;20050;-84
2022/01/21 14:24:16;;;;;;;18.15;2.38;;;6.90;99.90;;;;;;5015028;28;20045;-82
2022/01/21 14:26:57;;;;;;;21.63;2.63;;;6.90;99.90;;;;;;5019203;28;20386;-80
2022/01/21 14:29:33;;;;;;;18.27;2.65;;;6.80;99.90;;;;;;5026619;28;20049;-78
2022/01/21 14:32:13;;;;;;;15.93;2.80;;;6.80;99.90;;;;;;5021161;28;20056;-82
2022/01/21 14:34:39;;;;;;;19.80;3.20;;;6.80;99.90;;;;;;5013827;28;20046;-85
2022/01/21 14:37:07;;;;;;;22.42;3.25;;;6.80;99.90;;;;;;4997557;28;20157;-86
2022/01/21 14:39:42;;;;;;;27.73;4.25;;;6.80;99.90;;;;;;5013982;28;20076;-83
2022/01/21 14:42:09;;;;;;;27.35;3.78;;;6.70;99.90;;;;;;5013414;28;20076;-86
2022/01/21 14:44:44;;;;;;;27.33;3.70;;;6.70;99.90;;;;;;5013238;28;20133;-85
2022/01/21 14:47:11;;;;;;;28.75;3.25;;;6.70;99.90;;;;;;5013172;28;20045;-83
2022/01/21 14:49:39;;;;;;;23.95;3.25;;;6.70;99.90;;;;;;5013271;28;20129;-86
2022/01/21 14:55:08;;;;;;;19.38;3.63;;;6.70;99.90;;;;;;5011814;28;20494;-86
2022/01/21 14:57:34;;;;;;;27.85;3.33;;;6.60;99.90;;;;;;4996665;28;20405;-85
2022/01/21 15:00:04;;;;;;;22.17;2.90;;;6.60;99.90;;;;;;4996520;28;20038;-83
2022/01/21 15:02:41;;;;;;;15.32;2.97;;;6.60;99.90;;;;;;5012829;28;20045;-84
2022/01/21 15:05:11;;;;;;;15.82;2.60;;;6.60;99.90;;;;;;5012672;28;20045;-85
2022/01/21 15:07:40;;;;;;;24.08;3.20;;;6.60;99.90;;;;;;5012769;28;20034;-82
2022/01/21 15:10:22;;;;;;;18.98;2.13;;;6.60;99.90;;;;;;4996852;28;20366;-81
2022/01/21 15:15:43;;;;;;;25.00;3.20;;;6.70;99.90;;;;;;5012651;28;20065;-83
2022/01/21 15:18:13;;;;;;;13.02;2.42;;;6.70;99.90;;;;;;5012787;28;20088;-83
2022/01/21 15:20:42;;;;;;;21.35;3.00;;;6.70;99.90;;;;;;4996101;28;20038;-83
2022/01/21 15:23:08;;;;;;;22.98;3.70;;;6.70;99.90;;;;;;5013982;28;20065;-84
2022/01/21 15:25:35;;;;;;;12.90;2.22;;;6.70;99.90;;;;;;4996201;28;20038;-83
2022/01/21 15:28:01;;;;;;;15.27;2.55;;;6.70;99.90;;;;;;5013042;28;20493;-85
2022/01/21 15:30:31;;;;;;;15.27;3.15;;;6.70;99.90;;;;;;5014024;28;20064;-84
2022/01/21 15:32:59;;;;;;;26.48;3.92;;;6.70;99.90;;;;;;5013644;28;20049;-84
2022/01/21 15:35:26;;;;;;;16.13;2.58;;;6.60;99.90;;;;;;5012240;28;20037;-82
2022/01/21 15:37:52;;;;;;;23.80;3.10;;;6.60;99.90;;;;;;4996147;28;20129;-85
2022/01/21 15:40:18;;;;;;;16.95;3.03;;;6.60;99.90;;;;;;5012692;28;20173;-84
2022/01/21 15:42:44;;;;;;;16.40;2.10;;;6.60;99.90;;;;;;5012398;28;20437;-86
2022/01/21 15:45:11;;;;;;;17.33;2.85;;;6.60;99.90;;;;;;5013780;28;20049;-85
2022/01/21 15:47:37;;;;;;;21.30;3.38;;;6.60;99.90;;;;;;4996062;28;20053;-85
2022/01/21 15:50:05;;;;;;;16.88;1.77;;;6.60;99.90;;;;;;5012431;28;20095;-82
2022/01/21 15:52:31;;;;;;;22.40;2.83;;;6.60;99.90;;;;;;5012098;28;20054;-83
2022/01/21 15:54:57;;;;;;;21.02;2.45;;;6.60;99.90;;;;;;5012703;28;20228;-83
2022/01/21 15:57:23;;;;;;;15.63;2.40;;;6.60;99.90;;;;;;5013456;28;20041;-85
2022/01/21 15:59:49;;;;;;;18.30;2.55;;;6.50;99.90;;;;;;5013546;28;20126;-83
2022/01/21 16:02:15;;;;;;;16.15;2.35;;;6.50;99.90;;;;;;5012905;28;20120;-85
2022/01/21 16:04:43;;;;;;;16.77;3.03;;;6.50;99.90;;;;;;5005844;28;20049;-83
2022/01/21 16:07:09;;;;;;;11.73;2.33;;;6.50;99.90;;;;;;4994949;28;20099;-83
2022/01/21 16:09:36;;;;;;;15.30;2.63;;;6.50;99.90;;;;;;5013349;28;20133;-78
2022/01/21 16:12:03;;;;;;;20.05;3.47;;;6.40;99.90;;;;;;5013037;28;20077;-82
2022/01/21 16:14:29;;;;;;;37.75;4.93;;;6.40;99.90;;;;;;5011152;28;20046;-83
2022/01/21 16:16:54;;;;;;;19.00;3.05;;;6.40;99.90;;;;;;4995534;28;20104;-80
2022/01/21 16:19:20;;;;;;;16.95;3.38;;;6.50;99.90;;;;;;5011541;28;20038;-83
2022/01/21 16:21:48;;;;;;;20.05;3.10;;;6.40;99.90;;;;;;5011616;28;20108;-83
2022/01/21 16:24:14;;;;;;;22.75;4.15;;;6.40;99.90;;;;;;5012654;28;20100;-85
2022/01/21 16:26:41;;;;;;;23.20;4.85;;;6.40;99.90;;;;;;5012901;28;20041;-83
2022/01/21 16:29:07;;;;;;;18.98;3.83;;;6.40;99.90;;;;;;5012711;28;20050;-85
2022/01/21 16:31:33;;;;;;;25.05;4.47;;;6.40;99.90;;;;;;5011109;28;20478;-83
2022/01/21 16:34:00;;;;;;;21.52;4.45;;;6.40;99.90;;;;;;5011255;28;20038;-83
2022/01/21 16:36:30;;;;;;;19.80;3.78;;;6.40;99.90;;;;;;5011610;28;20083;-81
2022/01/21 16:38:57;;;;;;;24.25;5.15;;;6.40;99.90;;;;;;5011602;28;20050;-83
2022/01/21 16:41:23;;;;;;;24.83;3.80;;;6.40;99.90;;;;;;5015203;28;20038;-83
2022/01/21 16:43:52;;;;;;;21.10;4.85;;;6.40;99.90;;;;;;5015291;28;20045;-83
2022/01/21 16:46:22;;;;;;;13.00;3.08;;;6.40;99.90;;;;;;4997788;28;20045;-83
2022/01/21 16:48:48;;;;;;;18.63;3.63;;;6.40;99.90;;;;;;4998899;28;20050;-81
2022/01/21 16:51:14;;;;;;;24.83;3.85;;;6.40;99.90;;;;;;5013530;28;20064;-84
2022/01/21 16:53:39;;;;;;;18.98;3.08;;;6.40;99.90;;;;;;5015280;28;20565;-82
2022/01/21 16:56:05;;;;;;;27.83;3.67;;;6.40;99.90;;;;;;5015003;28;20439;-81
2022/01/21 16:58:31;;;;;;;19.15;3.67;;;6.40;99.90;;;;;;5015025;28;20085;-83
2022/01/21 17:00:58;;;;;;;24.40;4.35;;;6.40;99.90;;;;;;5015024;28;20064;-84
2022/01/21 17:03:24;;;;;;;25.00;3.30;;;6.40;99.90;;;;;;5015004;28;20533;-83
2022/01/21 17:05:54;;;;;;;16.67;2.50;;;6.40;99.90;;;;;;5015296;28;20081;-83
2022/01/21 17:08:20;;;;;;;20.50;3.08;;;6.40;99.90;;;;;;5016555;28;20038;-82
2022/01/21 17:10:47;;;;;;;17.98;2.95;;;6.40;99.90;;;;;;5015005;28;20561;-80
2022/01/21 17:13:12;;;;;;;18.55;3.38;;;6.40;99.90;;;;;;5015095;28;20041;-82
2022/01/21 17:15:38;;;;;;;15.15;2.83;;;6.40;99.90;;;;;;5016184;28;20556;-84
2022/01/21 17:18:05;;;;;;;22.08;2.75;;;6.40;99.90;;;;;;5014814;28;20437;-84
2022/01/21 17:20:32;;;;;;;19.85;3.10;;;6.50;99.90;;;;;;5014683;28;20038;-82
2022/01/21 17:22:58;;;;;;;18.77;2.40;;;6.40;99.90;;;;;;5014437;28;20049;-81
2022/01/21 17:25:25;;;;;;;16.08;2.47;;;6.40;99.90;;;;;;5015818;28;20037;-84
2022/01/21 17:27:50;;;;;;;18.88;2.13;;;6.40;99.90;;;;;;5014236;28;20363;-81